| time (UTC) | temp F | wind direction | speed knots | gust knots | rain 1hr in | rain 24hr in | rain mn in | humidity % | barometer mb |
| 20260507044225 | 47 | 63 | 3.5 | 4.3 | 0.00 | 0.29 | 0.28 | 89 | 1008.5 |
| 20260507043727 | 47 | 47 | 3.5 | 4.3 | 0.00 | 0.29 | 0.28 | 89 | 1008.4 |
| 20260507043222 | 47 | 68 | 3.5 | 6.1 | 0.00 | 0.29 | 0.28 | 89 | 1008.3 |
| 20260507042723 | 47 | 39 | 4.3 | 7.8 | 0.01 | 0.29 | 0.28 | 89 | 1008.3 |
| 20260507042223 | 47 | 64 | 5.2 | 7.8 | 0.01 | 0.29 | 0.28 | 89 | 1008.2 |
| 20260507041725 | 47 | 74 | 4.3 | 7.8 | 0.02 | 0.29 | 0.28 | 89 | 1008.3 |
| 20260507041224 | 47 | 56 | 2.6 | 8.7 | 0.02 | 0.29 | 0.28 | 89 | 1008.2 |
| 20260507040725 | 47 | 27 | 3.5 | 8.7 | 0.04 | 0.29 | 0.28 | 89 | 1008.0 |
| 20260507040223 | 47 | 47 | 3.5 | 8.7 | 0.06 | 0.29 | 0.28 | 89 | 1007.8 |
| 20260507035724 | 47 | 29 | 5.2 | 8.7 | 0.08 | 0.23 | 0.28 | 89 | 1007.8 |
| 20260507035221 | 47 | 34 | 3.5 | 7.8 | 0.09 | 0.23 | 0.28 | 89 | 1007.8 |
| 20260507034724 | 47 | 34 | 5.2 | 7.8 | 0.09 | 0.23 | 0.28 | 89 | 1007.8 |
| 20260507034223 | 47 | 34 | 3.5 | 6.1 | 0.11 | 0.23 | 0.28 | 88 | 1007.8 |
| 20260507033724 | 47 | 40 | 4.3 | 6.1 | 0.13 | 0.23 | 0.28 | 88 | 1007.8 |
| 20260507033223 | 47 | 20 | 3.5 | 5.2 | 0.14 | 0.23 | 0.28 | 88 | 1007.8 |
| 20260507033008 | 47 | 359 | 2.6 | 7.8 | 0.15 | 0.23 | 0.28 | 88 | 1007.9 |
| 20260507032515 | 47 | 6 | 2.6 | 7.8 | 0.16 | 0.23 | 0.28 | 88 | 1007.8 |
| 20260507032003 | 47 | 34 | 4.3 | 7.8 | 0.17 | 0.23 | 0.27 | 88 | 1007.7 |
| 20260507031222 | 47 | 47 | 4.3 | 6.1 | 0.17 | 0.23 | 0.26 | 88 | 1007.8 |
| 20260507030725 | 47 | 358 | 2.6 | 7.8 | 0.17 | 0.23 | 0.24 | 88 | 1007.8 |
| 20260507030510 | 47 | 9 | 3.5 | 9.6 | 0.17 | 0.23 | 0.22 | 88 | 1007.6 |
| 20260507025723 | 47 | 32 | 4.3 | 9.6 | 0.15 | 0.07 | 0.20 | 88 | 1007.5 |
| 20260507025459 | 47 | 41 | 5.2 | 9.6 | 0.15 | 0.07 | 0.19 | 88 | 1007.6 |
| 20260507025008 | 47 | 26 | 3.5 | 6.1 | 0.15 | 0.07 | 0.18 | 88 | 1007.8 |
| 20260507024222 | 47 | 27 | 4.3 | 6.1 | 0.14 | 0.07 | 0.17 | 87 | 1007.9 |
| 20260507023724 | 47 | 3 | 4.3 | 7.8 | 0.13 | 0.07 | 0.16 | 87 | 1008.0 |
| 20260507023222 | 47 | 9 | 4.3 | 7.8 | 0.13 | 0.07 | 0.14 | 87 | 1007.9 |
| 20260507022723 | 47 | 3 | 1.7 | 6.1 | 0.11 | 0.07 | 0.13 | 87 | 1007.9 |
| 20260507022501 | 47 | 9 | 5.2 | 8.7 | 0.11 | 0.07 | 0.12 | 87 | 1007.8 |
| 20260507021758 | 48 | 23 | 3.5 | 7.8 | 0.09 | 0.07 | 0.09 | 87 | 1007.7 |
| 20260507021748 | 47 | 10 | 6.1 | 8.7 | 0.09 | 0.07 | 0.10 | 87 | 1007.8 |
| 20260507021015 | 48 | 13 | 1.7 | 9.6 | 0.08 | 0.07 | 0.08 | 87 | 1007.7 |
| 20260507020508 | 48 | 39 | 6.1 | 9.6 | 0.06 | 0.07 | 0.06 | 87 | 1007.7 |
| 20260507015722 | 48 | 6 | 3.5 | 6.1 | 0.06 | 0.02 | 0.06 | 87 | 1007.7 |
| 20260507015221 | 48 | 25 | 4.3 | 6.1 | 0.05 | 0.02 | 0.05 | 87 | 1007.6 |
| 20260507014721 | 48 | 8 | 5.2 | 6.1 | 0.04 | 0.04 | 0.04 | 86 | 1007.5 |
| 20260507014220 | 48 | 10 | 3.5 | 6.1 | 0.03 | 0.06 | 0.03 | 86 | 1007.5 |
| 20260507013721 | 48 | 36 | 4.3 | 7.8 | 0.02 | 0.07 | 0.02 | 86 | 1007.4 |
| 20260507013221 | 48 | 40 | 6.1 | 7.8 | 0.02 | 0.09 | 0.02 | 86 | 1007.4 |
| 20260507012721 | 48 | 8 | 3.5 | 8.7 | 0.02 | 0.11 | 0.01 | 86 | 1007.5 |
| 20260507012219 | 49 | 10 | 3.5 | 8.7 | 0.01 | 0.13 | 0.01 | 85 | 1007.3 |
| 20260507011721 | 49 | 25 | 5.2 | 8.7 | 0.01 | 0.13 | 0.01 | 85 | 1007.3 |
| 20260507011219 | 49 | 32 | 5.2 | 10.4 | 0.00 | 0.13 | 0.00 | 85 | 1007.3 |
| 20260507010720 | 49 | 18 | 3.5 | 10.4 | 0.00 | 0.13 | 0.00 | 85 | 1007.2 |
| 20260507010219 | 49 | 358 | 7.0 | 9.6 | 0.00 | 0.13 | 0.00 | 85 | 1007.2 |
| 20260507005721 | 49 | 2 | 5.2 | 11.3 | 0.00 | 0.14 | 0.00 | 85 | 1007.1 |
| 20260507005219 | 49 | 18 | 7.0 | 11.3 | 0.00 | 0.15 | 0.00 | 85 | 1007.1 |
| 20260507005009 | 49 | 15 | 7.0 | 10.4 | 0.00 | 0.15 | 0.00 | 85 | 1007.0 |
| 20260507004219 | 49 | 30 | 4.3 | 9.6 | 0.00 | 0.15 | 0.00 | 84 | 1007.1 |
| 20260507003720 | 49 | 37 | 2.6 | 7.8 | 0.00 | 0.15 | 0.00 | 84 | 1006.8 |
| 20260507003510 | 50 | 30 | 6.1 | 8.7 | 0.00 | 0.17 | 0.00 | 84 | 1006.8 |
| 20260507002721 | 50 | 33 | 6.1 | 8.7 | 0.00 | 0.20 | 0.00 | 84 | 1006.9 |
| 20260507002501 | 50 | 32 | 4.3 | 7.8 | 0.00 | 0.22 | 0.00 | 84 | 1006.9 |
| 20260507001720 | 50 | 19 | 6.1 | 6.1 | 0.00 | 0.24 | 0.00 | 84 | 1007.0 |
| 20260507001219 | 50 | 25 | 4.3 | 6.1 | 0.00 | 0.24 | 0.00 | 84 | 1007.0 |
| 20260507000802 | 50 | 64 | 3.5 | 5.2 | 0.00 | 0.26 | 0.00 | 84 | 1007.0 |
| 20260507000745 | 50 | 46 | 2.6 | 4.3 | 0.00 | 0.25 | 0.00 | 84 | 1007.0 |
| 20260506235719 | 50 | 75 | 3.5 | 5.2 | 0.00 | 0.26 | 0.00 | 84 | 1007.0 |
| 20260506235218 | 50 | 73 | 1.7 | 5.2 | 0.00 | 0.26 | 0.00 | 84 | 1006.8 |
| 20260506234721 | 50 | 64 | 3.5 | 6.1 | 0.00 | 0.26 | 0.00 | 84 | 1006.6 |
| 20260506234217 | 50 | 54 | 4.3 | 7.8 | 0.00 | 0.27 | 0.00 | 84 | 1006.7 |
| 20260506233719 | 50 | 50 | 4.3 | 7.8 | 0.00 | 0.27 | 0.00 | 84 | 1006.6 |
| 20260506233217 | 50 | 19 | 5.2 | 7.8 | 0.00 | 0.28 | 0.00 | 84 | 1006.7 |
| 20260506232719 | 50 | 356 | 4.3 | 7.8 | 0.00 | 0.28 | 0.00 | 84 | 1006.8 |
| 20260506232509 | 50 | 19 | 3.5 | 8.7 | 0.00 | 0.28 | 0.00 | 83 | 1006.9 |
| 20260506232000 | 51 | 3 | 5.2 | 8.7 | 0.00 | 0.28 | 0.00 | 84 | 1006.9 |
| 20260506231216 | 51 | 19 | 4.3 | 8.7 | 0.00 | 0.28 | 0.00 | 83 | 1006.9 |
| 20260506230719 | 51 | 347 | 4.3 | 8.7 | 0.00 | 0.28 | 0.00 | 83 | 1006.9 |
| 20260506230453 | 51 | 16 | 3.5 | 6.1 | 0.00 | 0.28 | 0.00 | 83 | 1006.9 |
| 20260506225718 | 51 | 1 | 5.2 | 7.8 | 0.00 | 0.28 | 0.00 | 83 | 1006.7 |
| 20260506225217 | 51 | 37 | 3.5 | 7.8 | 0.00 | 0.28 | 0.00 | 83 | 1006.7 |
| 20260506225000 | 51 | 8 | 3.5 | 6.1 | 0.00 | 0.28 | 0.00 | 83 | 1006.7 |
| 20260506224451 | 51 | 6 | 5.2 | 6.1 | 0.00 | 0.28 | 0.00 | 83 | 1006.6 |
| 20260506223717 | 51 | 22 | 2.6 | 6.1 | 0.00 | 0.29 | 0.00 | 83 | 1006.5 |
| 20260506223217 | 51 | 54 | 4.3 | 6.1 | 0.00 | 0.29 | 0.00 | 83 | 1006.5 |
| 20260506222717 | 51 | 53 | 4.3 | 7.8 | 0.00 | 0.29 | 0.00 | 83 | 1006.5 |
| 20260506222216 | 51 | 56 | 3.5 | 7.8 | 0.00 | 0.29 | 0.00 | 83 | 1006.5 |
| 20260506221717 | 51 | 3 | 2.6 | 5.2 | 0.00 | 0.29 | 0.00 | 83 | 1006.5 |
| 20260506221459 | 52 | 32 | 1.7 | 8.7 | 0.00 | 0.29 | 0.00 | 83 | 1006.5 |
| 20260506220718 | 52 | 39 | 6.1 | 8.7 | 0.00 | 0.30 | 0.00 | 83 | 1006.5 |
| 20260506220218 | 52 | 41 | 2.6 | 7.8 | 0.00 | 0.32 | 0.00 | 83 | 1006.5 |
| 20260506215717 | 52 | 39 | 4.3 | 7.8 | 0.00 | 0.33 | 0.32 | 83 | 1006.5 |
| 20260506215215 | 52 | 29 | 2.6 | 6.1 | 0.00 | 0.33 | 0.32 | 83 | 1006.5 |
| 20260506214717 | 52 | 49 | 5.2 | 9.6 | 0.00 | 0.33 | 0.32 | 83 | 1006.4 |
| 20260506214216 | 52 | 26 | 5.2 | 9.6 | 0.00 | 0.33 | 0.32 | 83 | 1006.3 |
| 20260506213715 | 52 | 64 | 2.6 | 5.2 | 0.00 | 0.33 | 0.32 | 83 | 1006.4 |
| 20260506213215 | 52 | 25 | 3.5 | 7.8 | 0.00 | 0.33 | 0.32 | 82 | 1006.4 |
| 20260506212716 | 52 | 46 | 5.2 | 7.8 | 0.00 | 0.33 | 0.32 | 82 | 1006.4 |
| 20260506212215 | 52 | 44 | 5.2 | 6.1 | 0.00 | 0.33 | 0.32 | 82 | 1006.2 |
| 20260506211715 | 53 | 25 | 2.6 | 6.1 | 0.00 | 0.33 | 0.32 | 82 | 1006.2 |
| 20260506211501 | 53 | 68 | 3.5 | 5.2 | 0.00 | 0.33 | 0.32 | 82 | 1006.2 |
| 20260506210715 | 53 | 46 | 3.5 | 9.6 | 0.00 | 0.33 | 0.32 | 82 | 1006.3 |
| 20260506210212 | 53 | 22 | 5.2 | 9.6 | 0.00 | 0.33 | 0.32 | 82 | 1006.3 |
| 20260506205708 | 53 | 34 | 3.5 | 7.8 | 0.00 | 0.33 | 0.32 | 82 | 1006.1 |
| 20260506205205 | 53 | 29 | 5.2 | 10.4 | 0.00 | 0.33 | 0.32 | 82 | 1006.2 |
| 20260506204949 | 53 | 16 | 6.1 | 10.4 | 0.00 | 0.33 | 0.32 | 82 | 1006.0 |
| 20260506204203 | 53 | 18 | 3.5 | 8.7 | 0.00 | 0.33 | 0.32 | 82 | 1006.1 |
| 20260506203706 | 53 | 15 | 4.3 | 8.7 | 0.00 | 0.33 | 0.32 | 82 | 1006.1 |
| 20260506203257 | 54 | 51 | 5.2 | 8.7 | 0.00 | 0.33 | 0.32 | 82 | 1006.0 |
| 20260506203238 | 53 | 51 | 3.5 | 7.8 | 0.00 | 0.33 | 0.32 | 82 | 1006.0 |
| 20260506202205 | 54 | 49 | 3.5 | 8.7 | 0.00 | 0.33 | 0.32 | 82 | 1005.9 |
| 20260506201705 | 54 | 34 | 4.3 | 8.7 | 0.00 | 0.33 | 0.32 | 82 | 1005.9 |
| 20260506201453 | 54 | 41 | 6.1 | 8.7 | 0.00 | 0.33 | 0.32 | 82 | 1005.8 |
| 20260506200706 | 54 | 30 | 4.3 | 5.2 | 0.00 | 0.33 | 0.32 | 81 | 1006.0 |
| 20260506200206 | 54 | 49 | 1.7 | 5.2 | 0.00 | 0.33 | 0.32 | 81 | 1006.0 |
| 20260506195955 | 54 | 36 | 4.3 | 5.2 | 0.00 | 0.33 | 0.32 | 81 | 1006.0 |
| 20260506195203 | 54 | 20 | 3.5 | 4.3 | 0.00 | 0.33 | 0.32 | 81 | 1006.0 |
| 20260506194706 | 54 | 33 | 2.6 | 6.1 | 0.00 | 0.33 | 0.32 | 81 | 1005.8 |
| 20260506194205 | 54 | 33 | 4.3 | 7.8 | 0.00 | 0.33 | 0.32 | 81 | 1005.8 |
| 20260506193707 | 54 | 44 | 2.6 | 7.8 | 0.00 | 0.33 | 0.32 | 81 | 1005.8 |
| 20260506193204 | 54 | 27 | 3.5 | 9.6 | 0.00 | 0.33 | 0.32 | 81 | 1005.8 |
| 20260506192707 | 55 | 12 | 5.2 | 9.6 | 0.00 | 0.33 | 0.32 | 80 | 1005.6 |
| 20260506192202 | 55 | 8 | 5.2 | 10.4 | 0.00 | 0.33 | 0.32 | 80 | 1005.6 |
| 20260506191955 | 55 | 40 | 6.1 | 10.4 | 0.00 | 0.33 | 0.32 | 80 | 1005.6 |
| 20260506191204 | 55 | 6 | 5.2 | 8.7 | 0.00 | 0.33 | 0.32 | 80 | 1005.6 |
| 20260506190703 | 55 | 29 | 3.5 | 9.6 | 0.00 | 0.33 | 0.32 | 79 | 1005.7 |
| 20260506190205 | 55 | 27 | 6.1 | 9.6 | 0.00 | 0.33 | 0.32 | 79 | 1005.6 |
| 20260506185706 | 55 | 30 | 6.1 | 9.6 | 0.00 | 0.33 | 0.32 | 79 | 1005.5 |
| 20260506185448 | 56 | 18 | 7.8 | 9.6 | 0.00 | 0.33 | 0.32 | 79 | 1005.5 |
| 20260506184705 | 56 | 22 | 4.3 | 8.7 | 0.00 | 0.33 | 0.32 | 79 | 1005.5 |
| 20260506184205 | 56 | 15 | 6.1 | 9.6 | 0.00 | 0.33 | 0.32 | 78 | 1005.3 |
| 20260506183706 | 56 | 3 | 7.8 | 10.4 | 0.00 | 0.33 | 0.32 | 78 | 1005.3 |
| 20260506183205 | 57 | 32 | 5.2 | 10.4 | 0.00 | 0.33 | 0.32 | 77 | 1005.3 |
| 20260506182704 | 57 | 359 | 5.2 | 9.6 | 0.00 | 0.33 | 0.32 | 77 | 1005.1 |
| 20260506182202 | 57 | 44 | 7.0 | 9.6 | 0.00 | 0.33 | 0.32 | 77 | 1005.1 |
| 20260506181648 | 57 | 67 | 7.8 | 9.6 | 0.00 | 0.33 | 0.32 | 77 | 1005.2 |
| 20260506181145 | 58 | 20 | 4.3 | 9.6 | 0.00 | 0.33 | 0.32 | 77 | 1005.0 |
| 20260506180643 | 58 | 8 | 3.5 | 10.4 | 0.00 | 0.33 | 0.32 | 76 | 1004.9 |
| 20260506180143 | 58 | 46 | 7.0 | 10.4 | 0.00 | 0.33 | 0.32 | 76 | 1004.9 |
| 20260506175721 | 59 | 22 | 7.8 | 11.3 | 0.00 | 0.33 | 0.32 | 76 | 1004.7 |
| 20260506175702 | 58 | 1 | 4.3 | 11.3 | 0.00 | 0.33 | 0.32 | 76 | 1004.8 |
| 20260506174711 | 59 | 13 | 7.0 | 8.7 | 0.00 | 0.33 | 0.32 | 76 | 1004.9 |
| 20260506174659 | 59 | 26 | 6.1 | 9.6 | 0.00 | 0.33 | 0.32 | 76 | 1004.8 |
| 20260506173633 | 59 | 351 | 3.5 | 8.7 | 0.00 | 0.33 | 0.32 | 76 | 1004.9 |
| 20260506173132 | 59 | 36 | 5.2 | 8.7 | 0.00 | 0.33 | 0.32 | 76 | 1004.7 |
| 20260506172615 | 59 | 23 | 6.1 | 13.9 | 0.00 | 0.33 | 0.32 | 75 | 1004.7 |
| 20260506172401 | 59 | 356 | 7.0 | 13.9 | 0.00 | 0.33 | 0.32 | 75 | 1004.7 |
| 20260506171616 | 60 | 20 | 8.7 | 11.3 | 0.00 | 0.33 | 0.32 | 75 | 1004.7 |
| 20260506171112 | 60 | 9 | 7.0 | 10.4 | 0.00 | 0.33 | 0.32 | 75 | 1004.7 |
| 20260506170614 | 60 | 43 | 7.0 | 13.0 | 0.00 | 0.33 | 0.32 | 75 | 1004.7 |
| 20260506170111 | 60 | 32 | 9.6 | 13.0 | 0.00 | 0.33 | 0.32 | 75 | 1004.7 |
| 20260506165615 | 60 | 32 | 7.8 | 12.2 | 0.00 | 0.33 | 0.32 | 75 | 1004.7 |
| 20260506165112 | 61 | 13 | 7.8 | 12.2 | 0.00 | 0.33 | 0.32 | 75 | 1004.6 |
| 20260506164615 | 61 | 27 | 5.2 | 9.6 | 0.00 | 0.33 | 0.32 | 75 | 1004.7 |
| 20260506164112 | 61 | 12 | 6.1 | 12.2 | 0.00 | 0.33 | 0.32 | 75 | 1004.7 |
| 20260506163615 | 61 | 32 | 7.0 | 12.2 | 0.00 | 0.33 | 0.32 | 74 | 1004.6 |
| 20260506163349 | 62 | 26 | 2.6 | 11.3 | 0.00 | 0.33 | 0.32 | 74 | 1004.6 |
| 20260506162612 | 62 | 23 | 4.3 | 11.3 | 0.00 | 0.33 | 0.32 | 74 | 1004.5 |
| 20260506162122 | 62 | 10 | 6.1 | 12.2 | 0.00 | 0.33 | 0.32 | 74 | 1004.5 |
| 20260506161853 | 62 | 1 | 9.6 | 13.0 | 0.00 | 0.33 | 0.32 | 74 | 1004.5 |
| 20260506161123 | 63 | 325 | 4.3 | 13.0 | 0.00 | 0.33 | 0.32 | 74 | 1004.4 |
| 20260506160611 | 63 | 18 | 7.8 | 11.3 | 0.00 | 0.33 | 0.32 | 74 | 1004.5 |
| 20260506160314 | 64 | 18 | 9.6 | 14.8 | 0.00 | 0.33 | 0.32 | 73 | 1004.5 |
| 20260506160306 | 64 | 19 | 8.7 | 13.0 | 0.00 | 0.33 | 0.32 | 73 | 1004.6 |
| 20260506160234 | 63 | 344 | 7.8 | 14.8 | 0.00 | 0.33 | 0.32 | 73 | 1004.6 |
| 20260506154612 | 64 | 30 | 7.0 | 10.4 | 0.00 | 0.33 | 0.32 | 73 | 1004.6 |
| 20260506154347 | 64 | 6 | 5.2 | 9.6 | 0.00 | 0.33 | 0.32 | 73 | 1004.6 |
| 20260506153611 | 65 | 18 | 5.2 | 8.7 | 0.00 | 0.33 | 0.32 | 73 | 1004.6 |
| 20260506153109 | 65 | 20 | 5.2 | 12.2 | 0.00 | 0.33 | 0.32 | 72 | 1004.5 |
| 20260506152624 | 65 | 20 | 8.7 | 12.2 | 0.00 | 0.33 | 0.32 | 72 | 1004.5 |
| 20260506152109 | 65 | 339 | 6.1 | 11.3 | 0.00 | 0.33 | 0.32 | 71 | 1004.6 |
| 20260506151612 | 66 | 317 | 2.6 | 13.0 | 0.00 | 0.33 | 0.32 | 71 | 1004.7 |
| 20260506151110 | 66 | 27 | 4.3 | 13.0 | 0.00 | 0.33 | 0.32 | 71 | 1004.5 |
| 20260506150611 | 66 | 36 | 3.5 | 8.7 | 0.00 | 0.33 | 0.32 | 70 | 1004.5 |
| 20260506150107 | 67 | 297 | 3.5 | 5.2 | 0.00 | 0.33 | 0.32 | 70 | 1004.4 |
| 20260506145609 | 67 | 356 | 3.5 | 5.2 | 0.00 | 0.33 | 0.32 | 69 | 1004.5 |
| 20260506145108 | 67 | 314 | 3.5 | 5.2 | 0.00 | 0.33 | 0.32 | 69 | 1004.6 |
| 20260506144610 | 68 | 232 | 3.5 | 8.7 | 0.00 | 0.33 | 0.32 | 69 | 1004.5 |
| 20260506144107 | 68 | 229 | 4.3 | 8.7 | 0.00 | 0.33 | 0.32 | 68 | 1004.6 |
| 20260506143609 | 69 | 286 | 4.3 | 11.3 | 0.00 | 0.33 | 0.32 | 67 | 1004.5 |
| 20260506143107 | 69 | 289 | 5.2 | 11.3 | 0.00 | 0.33 | 0.32 | 68 | 1004.4 |
| 20260506142609 | 69 | 251 | 4.3 | 8.7 | 0.00 | 0.33 | 0.32 | 69 | 1004.5 |
| 20260506142109 | 68 | 269 | 5.2 | 12.2 | 0.00 | 0.33 | 0.32 | 67 | 1004.5 |
| 20260506141611 | 68 | 260 | 2.6 | 12.2 | 0.00 | 0.33 | 0.32 | 66 | 1004.4 |
| 20260506141109 | 69 | 248 | 4.3 | 10.4 | 0.00 | 0.33 | 0.32 | 65 | 1004.5 |
| 20260506140612 | 69 | 344 | 3.5 | 16.5 | 0.00 | 0.33 | 0.32 | 66 | 1004.4 |
| 20260506140112 | 69 | 296 | 4.3 | 17.4 | 0.00 | 0.33 | 0.32 | 64 | 1004.4 |
| 20260506135612 | 69 | 246 | 10.4 | 17.4 | 0.00 | 0.33 | 0.32 | 65 | 1004.4 |
| 20260506135108 | 69 | 279 | 9.6 | 14.8 | 0.00 | 0.33 | 0.32 | 66 | 1004.5 |
| 20260506134612 | 69 | 270 | 4.3 | 10.4 | 0.00 | 0.33 | 0.32 | 68 | 1004.5 |
| 20260506134113 | 68 | 234 | 6.1 | 11.3 | 0.00 | 0.33 | 0.32 | 68 | 1004.5 |
| 20260506133612 | 68 | 273 | 5.2 | 11.3 | 0.00 | 0.33 | 0.32 | 67 | 1004.5 |
| 20260506133347 | 68 | 296 | 6.1 | 10.4 | 0.00 | 0.33 | 0.32 | 68 | 1004.4 |
| 20260506132607 | 69 | 239 | 6.1 | 8.7 | 0.00 | 0.33 | 0.32 | 68 | 1004.4 |
| 20260506132106 | 69 | 280 | 4.3 | 11.3 | 0.00 | 0.33 | 0.32 | 68 | 1004.5 |
| 20260506131606 | 69 | 335 | 4.3 | 11.3 | 0.00 | 0.33 | 0.32 | 68 | 1004.4 |
| 20260506131356 | 69 | 276 | 6.1 | 11.3 | 0.00 | 0.33 | 0.32 | 66 | 1004.4 |
| 20260506130606 | 70 | 256 | 6.1 | 11.3 | 0.00 | 0.33 | 0.32 | 66 | 1004.4 |
| 20260506130106 | 70 | 239 | 7.0 | 11.3 | 0.00 | 0.33 | 0.32 | 66 | 1004.4 |
| 20260506125607 | 69 | 293 | 6.1 | 10.4 | 0.00 | 0.33 | 0.32 | 67 | 1004.4 |
| 20260506125106 | 69 | 313 | 3.5 | 14.8 | 0.00 | 0.33 | 0.32 | 67 | 1004.4 |
| 20260506124606 | 69 | 300 | 9.6 | 14.8 | 0.00 | 0.33 | 0.32 | 66 | 1004.3 |
| 20260506124106 | 69 | 253 | 6.1 | 13.9 | 0.00 | 0.33 | 0.32 | 65 | 1004.2 |
| 20260506123607 | 69 | 263 | 9.6 | 13.9 | 0.00 | 0.33 | 0.32 | 67 | 1004.3 |
| 20260506123106 | 69 | 228 | 7.8 | 15.6 | 0.00 | 0.33 | 0.32 | 69 | 1004.4 |
| 20260506122607 | 68 | 239 | 11.3 | 15.6 | 0.00 | 0.33 | 0.32 | 69 | 1004.4 |
| 20260506122107 | 68 | 248 | 7.0 | 12.2 | 0.00 | 0.33 | 0.32 | 68 | 1004.4 |
| 20260506121608 | 68 | 293 | 6.1 | 12.2 | 0.00 | 0.33 | 0.32 | 69 | 1004.4 |
| 20260506121130 | 68 | 272 | 7.8 | 15.6 | 0.00 | 0.33 | 0.32 | 63 | 1004.3 |
| 20260506121125 | 68 | 242 | 6.1 | 15.6 | 0.00 | 0.33 | 0.32 | 69 | 1004.5 |
| 20260506120104 | 68 | 276 | 7.8 | 12.2 | 0.00 | 0.33 | 0.32 | 64 | 1004.3 |
| 20260506115549 | 68 | 269 | 5.2 | 12.2 | 0.00 | 0.33 | 0.32 | 67 | 1004.1 |
| 20260506115037 | 67 | 189 | 6.1 | 13.0 | 0.00 | 0.33 | 0.32 | 68 | 1004.2 |
| 20260506114533 | 66 | 198 | 7.8 | 13.0 | 0.00 | 0.33 | 0.32 | 69 | 1004.2 |
| 20260506114034 | 66 | 279 | 6.1 | 10.4 | 0.00 | 0.33 | 0.32 | 70 | 1004.3 |
| 20260506113532 | 64 | 221 | 3.5 | 13.0 | 0.00 | 0.33 | 0.32 | 72 | 1004.3 |
| 20260506113033 | 64 | 252 | 7.8 | 13.0 | 0.00 | 0.33 | 0.32 | 74 | 1004.3 |
| 20260506112818 | 63 | 211 | 4.3 | 10.4 | 0.00 | 0.33 | 0.32 | 75 | 1004.4 |
| 20260506112813 | 63 | 270 | 7.8 | 13.0 | 0.00 | 0.33 | 0.32 | 75 | 1004.3 |
| 20260506111510 | 62 | 234 | 6.1 | 10.4 | 0.00 | 0.33 | 0.32 | 76 | 1004.3 |
| 20260506111058 | 62 | 242 | 7.8 | 11.3 | 0.00 | 0.33 | 0.32 | 75 | 1004.2 |
| 20260506111039 | 62 | 232 | 5.2 | 10.4 | 0.00 | 0.33 | 0.32 | 76 | 1004.3 |
| 20260506105956 | 62 | 253 | 6.1 | 10.4 | 0.00 | 0.33 | 0.32 | 74 | 1004.2 |
| 20260506105750 | 62 | 224 | 6.1 | 10.4 | 0.00 | 0.33 | 0.32 | 73 | 1004.2 |
| 20260506105232 | 0 | 0.0 | 0.0 | 0.00 | 0.33 | 0.32 | |||
| 20260506104732 | 62 | 259 | 6.1 | 7.8 | 0.00 | 0.33 | 0.32 | 73 | 1004.2 |
| 20260506104448 | 62 | 259 | 6.1 | 13.0 | 0.00 | 0.33 | 0.32 | 73 | 1004.2 |
| 20260506103722 | 62 | 269 | 6.1 | 13.0 | 0.00 | 0.33 | 0.32 | 74 | 1004.1 |
| 20260506103221 | 62 | 272 | 8.7 | 12.2 | 0.00 | 0.33 | 0.32 | 74 | 1004.1 |
| 20260506103008 | 63 | 222 | 9.6 | 12.2 | 0.00 | 0.33 | 0.32 | 74 | 1004.0 |
| 20260506102221 | 63 | 246 | 7.0 | 9.6 | 0.00 | 0.33 | 0.32 | 74 | 1004.1 |
| 20260506101958 | 63 | 276 | 7.0 | 11.3 | 0.00 | 0.33 | 0.32 | 73 | 1004.1 |
| 20260506101221 | 63 | 253 | 10.4 | 11.3 | 0.00 | 0.33 | 0.32 | 75 | 1004.0 |
| 20260506100721 | 63 | 260 | 5.2 | 8.7 | 0.00 | 0.33 | 0.32 | 75 | 1004.0 |
| 20260506100206 | 63 | 252 | 5.2 | 8.7 | 0.00 | 0.33 | 0.32 | 75 | 1003.9 |
| 20260506095703 | 63 | 258 | 7.0 | 12.2 | 0.00 | 0.33 | 0.32 | 75 | 1003.7 |
| 20260506095205 | 63 | 221 | 7.8 | 12.2 | 0.00 | 0.33 | 0.32 | 73 | 1003.7 |
| 20260506094705 | 63 | 225 | 7.0 | 12.2 | 0.00 | 0.33 | 0.32 | 72 | 1003.7 |
| 20260506094443 | 63 | 238 | 8.7 | 12.2 | 0.00 | 0.33 | 0.32 | 72 | 1003.5 |
| 20260506093704 | 64 | 260 | 7.8 | 12.2 | 0.00 | 0.33 | 0.32 | 72 | 1003.6 |
| 20260506093204 | 64 | 203 | 7.8 | 11.3 | 0.00 | 0.33 | 0.32 | 74 | 1003.7 |
| 20260506092704 | 64 | 259 | 7.0 | 11.3 | 0.00 | 0.33 | 0.32 | 74 | 1003.4 |
| 20260506092452 | 64 | 218 | 6.1 | 9.6 | 0.00 | 0.33 | 0.32 | 75 | 1003.4 |
| 20260506091704 | 63 | 263 | 5.2 | 8.7 | 0.00 | 0.33 | 0.32 | 75 | 1003.4 |
| 20260506091204 | 62 | 228 | 6.1 | 12.2 | 0.00 | 0.33 | 0.32 | 75 | 1003.2 |
| 20260506090703 | 62 | 231 | 8.7 | 12.2 | 0.00 | 0.33 | 0.32 | 75 | 1003.3 |
| 20260506090226 | 63 | 241 | 8.7 | 14.8 | 0.00 | 0.33 | 0.32 | 75 | 1003.2 |
| 20260506090218 | 62 | 220 | 7.8 | 14.8 | 0.00 | 0.33 | 0.32 | 75 | 1003.4 |
| 20260506085204 | 63 | 263 | 7.0 | 12.2 | 0.00 | 0.33 | 0.32 | 78 | 1003.2 |
| 20260506084705 | 62 | 293 | 5.2 | 11.3 | 0.00 | 0.33 | 0.32 | 79 | 1003.1 |
| 20260506084204 | 61 | 194 | 7.0 | 11.3 | 0.00 | 0.33 | 0.32 | 78 | 1003.2 |
| 20260506083703 | 61 | 234 | 5.2 | 13.0 | 0.00 | 0.33 | 0.32 | 78 | 1003.1 |
| 20260506083204 | 61 | 225 | 7.0 | 13.0 | 0.00 | 0.33 | 0.32 | 78 | 1003.1 |
| 20260506082704 | 61 | 204 | 7.8 | 11.3 | 0.00 | 0.33 | 0.32 | 78 | 1003.1 |
| 20260506082203 | 62 | 300 | 7.0 | 10.4 | 0.00 | 0.33 | 0.32 | 79 | 1003.0 |
| 20260506081941 | 62 | 237 | 7.0 | 11.3 | 0.01 | 0.33 | 0.32 | 79 | 1003.1 |
| 20260506081445 | 61 | 211 | 9.6 | 13.0 | 0.01 | 0.33 | 0.32 | 81 | 1002.9 |
| 20260506080942 | 61 | 256 | 7.8 | 13.0 | 0.01 | 0.33 | 0.32 | 83 | 1003.0 |
| 20260506080205 | 60 | 246 | 4.3 | 13.0 | 0.01 | 0.33 | 0.32 | 85 | 1003.0 |
| 20260506073204 | 58 | 217 | 5.2 | 10.4 | 0.01 | 0.32 | 0.32 | 89 | 1003.3 |
| 20260506072946 | 58 | 201 | 5.2 | 10.4 | 0.01 | 0.32 | 0.32 | 90 | 1003.3 |
| 20260506072204 | 57 | 193 | 6.1 | 7.8 | 0.01 | 0.32 | 0.32 | 90 | 1003.2 |
| 20260506071704 | 57 | 194 | 4.3 | 7.8 | 0.00 | 0.32 | 0.31 | 90 | 1003.1 |
| 20260506071205 | 57 | 208 | 5.2 | 7.8 | 0.00 | 0.32 | 0.31 | 91 | 1003.1 |
| 20260506070633 | 57 | 203 | 5.2 | 7.8 | 0.00 | 0.32 | 0.31 | 91 | 1003.2 |
| 20260506070135 | 56 | 215 | 4.3 | 6.1 | 0.00 | 0.32 | 0.31 | 91 | 1003.4 |
| 20260506062134 | 55 | 149 | 1.7 | 2.6 | 0.00 | 0.32 | 0.31 | 91 | 1003.3 |
| 20260506061634 | 54 | 158 | 1.7 | 2.6 | 0.00 | 0.32 | 0.31 | 91 | 1003.3 |
| 20260506061134 | 54 | 155 | 1.7 | 2.6 | 0.00 | 0.32 | 0.31 | 91 | 1003.3 |
| 20260506060634 | 54 | 160 | 1.7 | 5.2 | 0.00 | 0.32 | 0.31 | 91 | 1003.5 |
| 20260506060135 | 54 | 135 | 2.6 | 5.2 | 0.00 | 0.32 | 0.31 | 91 | 1003.5 |
| 20260506051133 | 53 | 139 | 2.6 | 3.5 | 0.00 | 0.32 | 0.31 | 90 | 1003.4 |
| 20260506050909 | 53 | 135 | 0.9 | 2.6 | 0.00 | 0.32 | 0.31 | 90 | 1003.5 |
| 20260506050133 | 53 | 128 | 1.7 | 2.6 | 0.00 | 0.32 | 0.31 | 90 | 1003.5 |
| 20260506045132 | 53 | 120 | 1.7 | 3.5 | 0.00 | 0.32 | 0.31 | 90 | 1003.6 |
| 20260506044633 | 53 | 120 | 1.7 | 3.5 | 0.00 | 0.32 | 0.31 | 90 | 1003.5 |